sensor_id;sensor_type;location;lat;lon;timestamp;temperature;humidity
14755;DHT22;7469;50.906;6.952;2023-07-16T00:01:52;21.60;99.90
14755;DHT22;7469;50.906;6.952;2023-07-16T00:04:20;21.60;99.90
14755;DHT22;7469;50.906;6.952;2023-07-16T00:06:48;21.60;99.90
14755;DHT22;7469;50.906;6.952;2023-07-16T00:09:16;21.50;99.90
14755;DHT22;7469;50.906;6.952;2023-07-16T00:11:45;21.50;99.90
14755;DHT22;7469;50.906;6.952;2023-07-16T00:14:13;21.50;99.90
14755;DHT22;7469;50.906;6.952;2023-07-16T00:16:42;21.40;99.90
14755;DHT22;7469;50.906;6.952;2023-07-16T00:19:11;21.40;99.90
14755;DHT22;7469;50.906;6.952;2023-07-16T00:21:39;21.40;99.90
14755;DHT22;7469;50.906;6.952;2023-07-16T00:24:07;21.30;99.90
14755;DHT22;7469;50.906;6.952;2023-07-16T00:26:35;21.20;99.90
14755;DHT22;7469;50.906;6.952;2023-07-16T00:29:03;21.20;99.90
14755;DHT22;7469;50.906;6.952;2023-07-16T00:31:31;21.20;99.90
14755;DHT22;7469;50.906;6.952;2023-07-16T00:33:59;21.10;99.90
14755;DHT22;7469;50.906;6.952;2023-07-16T00:36:28;21.10;99.90
14755;DHT22;7469;50.906;6.952;2023-07-16T00:38:56;21.10;99.90
14755;DHT22;7469;50.906;6.952;2023-07-16T00:41:24;21.00;99.90
14755;DHT22;7469;50.906;6.952;2023-07-16T00:43:52;21.00;99.90
14755;DHT22;7469;50.906;6.952;2023-07-16T00:46:21;20.90;99.90
14755;DHT22;7469;50.906;6.952;2023-07-16T00:48:50;20.90;99.90
14755;DHT22;7469;50.906;6.952;2023-07-16T00:51:18;20.90;99.90
14755;DHT22;7469;50.906;6.952;2023-07-16T00:53:48;20.80;99.90
14755;DHT22;7469;50.906;6.952;2023-07-16T00:56:17;20.80;99.90
14755;DHT22;7469;50.906;6.952;2023-07-16T00:58:45;20.70;99.90
14755;DHT22;7469;50.906;6.952;2023-07-16T01:01:13;20.70;99.90
14755;DHT22;7469;50.906;6.952;2023-07-16T01:03:41;20.70;99.90
14755;DHT22;7469;50.906;6.952;2023-07-16T01:06:13;20.70;99.90
14755;DHT22;7469;50.906;6.952;2023-07-16T01:08:45;20.60;99.90
14755;DHT22;7469;50.906;6.952;2023-07-16T01:11:15;20.60;99.90
14755;DHT22;7469;50.906;6.952;2023-07-16T01:13:44;20.60;99.90
14755;DHT22;7469;50.906;6.952;2023-07-16T01:16:19;20.60;99.90
14755;DHT22;7469;50.906;6.952;2023-07-16T01:18:47;20.60;99.90
14755;DHT22;7469;50.906;6.952;2023-07-16T01:21:16;20.60;99.90
14755;DHT22;7469;50.906;6.952;2023-07-16T01:24:10;20.50;99.90
14755;DHT22;7469;50.906;6.952;2023-07-16T01:26:58;20.40;99.90
14755;DHT22;7469;50.906;6.952;2023-07-16T01:29:35;20.30;99.90
14755;DHT22;7469;50.906;6.952;2023-07-16T01:32:05;20.10;99.90
14755;DHT22;7469;50.906;6.952;2023-07-16T01:34:36;20.10;99.90
14755;DHT22;7469;50.906;6.952;2023-07-16T01:37:05;20.10;99.90
14755;DHT22;7469;50.906;6.952;2023-07-16T01:39:33;20.00;99.90
14755;DHT22;7469;50.906;6.952;2023-07-16T01:42:01;20.00;99.90
14755;DHT22;7469;50.906;6.952;2023-07-16T01:44:29;19.90;99.90
14755;DHT22;7469;50.906;6.952;2023-07-16T01:47:11;19.90;99.90
14755;DHT22;7469;50.906;6.952;2023-07-16T01:49:39;19.90;99.90
14755;DHT22;7469;50.906;6.952;2023-07-16T01:52:09;19.90;99.90
14755;DHT22;7469;50.906;6.952;2023-07-16T01:54:37;19.90;99.90
14755;DHT22;7469;50.906;6.952;2023-07-16T01:57:05;19.80;99.90
14755;DHT22;7469;50.906;6.952;2023-07-16T01:59:33;19.80;99.90
14755;DHT22;7469;50.906;6.952;2023-07-16T02:02:01;19.80;99.90
14755;DHT22;7469;50.906;6.952;2023-07-16T02:04:30;19.80;99.90
14755;DHT22;7469;50.906;6.952;2023-07-16T02:06:58;19.80;99.90
14755;DHT22;7469;50.906;6.952;2023-07-16T02:09:26;19.80;99.90
14755;DHT22;7469;50.906;6.952;2023-07-16T02:11:54;19.80;99.90
14755;DHT22;7469;50.906;6.952;2023-07-16T02:14:22;19.80;99.90
14755;DHT22;7469;50.906;6.952;2023-07-16T02:16:50;19.80;99.90
14755;DHT22;7469;50.906;6.952;2023-07-16T02:19:18;19.80;99.90
14755;DHT22;7469;50.906;6.952;2023-07-16T02:21:47;19.70;99.90
14755;DHT22;7469;50.906;6.952;2023-07-16T02:24:15;19.70;99.90
14755;DHT22;7469;50.906;6.952;2023-07-16T02:26:43;19.70;99.90
14755;DHT22;7469;50.906;6.952;2023-07-16T02:29:11;19.70;99.90
14755;DHT22;7469;50.906;6.952;2023-07-16T02:31:39;19.70;99.90
14755;DHT22;7469;50.906;6.952;2023-07-16T02:34:07;19.70;99.90
14755;DHT22;7469;50.906;6.952;2023-07-16T02:36:35;19.60;99.90
14755;DHT22;7469;50.906;6.952;2023-07-16T02:39:04;19.60;99.90
14755;DHT22;7469;50.906;6.952;2023-07-16T02:41:32;19.50;99.90
14755;DHT22;7469;50.906;6.952;2023-07-16T02:44:01;19.50;99.90
14755;DHT22;7469;50.906;6.952;2023-07-16T02:46:29;19.50;99.90
14755;DHT22;7469;50.906;6.952;2023-07-16T02:48:57;19.40;99.90
14755;DHT22;7469;50.906;6.952;2023-07-16T02:51:25;19.40;99.90
14755;DHT22;7469;50.906;6.952;2023-07-16T02:53:53;19.30;99.90
14755;DHT22;7469;50.906;6.952;2023-07-16T02:56:22;19.30;99.90
14755;DHT22;7469;50.906;6.952;2023-07-16T02:58:50;19.30;99.90
14755;DHT22;7469;50.906;6.952;2023-07-16T03:01:18;19.30;99.90
14755;DHT22;7469;50.906;6.952;2023-07-16T03:03:46;19.30;99.90
14755;DHT22;7469;50.906;6.952;2023-07-16T03:06:14;19.30;99.90
14755;DHT22;7469;50.906;6.952;2023-07-16T03:08:46;19.30;99.90
14755;DHT22;7469;50.906;6.952;2023-07-16T03:11:15;19.20;99.90
14755;DHT22;7469;50.906;6.952;2023-07-16T03:13:44;19.20;99.90
14755;DHT22;7469;50.906;6.952;2023-07-16T03:16:12;19.10;99.90
14755;DHT22;7469;50.906;6.952;2023-07-16T03:18:41;19.10;99.90
14755;DHT22;7469;50.906;6.952;2023-07-16T03:21:09;19.10;99.90
14755;DHT22;7469;50.906;6.952;2023-07-16T03:23:37;19.00;99.90
14755;DHT22;7469;50.906;6.952;2023-07-16T03:26:05;19.00;99.90
14755;DHT22;7469;50.906;6.952;2023-07-16T03:28:32;18.90;99.90
14755;DHT22;7469;50.906;6.952;2023-07-16T03:31:02;19.00;99.90
14755;DHT22;7469;50.906;6.952;2023-07-16T03:33:30;18.90;99.90
14755;DHT22;7469;50.906;6.952;2023-07-16T03:35:58;18.90;99.90
14755;DHT22;7469;50.906;6.952;2023-07-16T03:38:25;18.80;99.90
14755;DHT22;7469;50.906;6.952;2023-07-16T03:40:53;18.80;99.90
14755;DHT22;7469;50.906;6.952;2023-07-16T03:43:21;18.70;99.90
14755;DHT22;7469;50.906;6.952;2023-07-16T03:45:49;18.80;99.90
14755;DHT22;7469;50.906;6.952;2023-07-16T03:48:19;18.70;99.90
14755;DHT22;7469;50.906;6.952;2023-07-16T03:50:47;18.70;99.90
14755;DHT22;7469;50.906;6.952;2023-07-16T03:53:15;18.80;99.90
14755;DHT22;7469;50.906;6.952;2023-07-16T03:55:43;18.70;99.90
14755;DHT22;7469;50.906;6.952;2023-07-16T03:58:11;18.70;99.90
14755;DHT22;7469;50.906;6.952;2023-07-16T04:00:41;18.70;99.90
14755;DHT22;7469;50.906;6.952;2023-07-16T04:03:10;18.70;99.90
14755;DHT22;7469;50.906;6.952;2023-07-16T04:05:40;18.70;99.90
14755;DHT22;7469;50.906;6.952;2023-07-16T04:08:08;18.60;99.90
14755;DHT22;7469;50.906;6.952;2023-07-16T04:10:36;18.60;99.90
14755;DHT22;7469;50.906;6.952;2023-07-16T04:13:03;18.50;99.90
14755;DHT22;7469;50.906;6.952;2023-07-16T04:15:32;18.50;99.90
14755;DHT22;7469;50.906;6.952;2023-07-16T04:18:00;18.50;99.90
14755;DHT22;7469;50.906;6.952;2023-07-16T04:20:28;18.50;99.90
14755;DHT22;7469;50.906;6.952;2023-07-16T04:22:58;18.50;99.90
14755;DHT22;7469;50.906;6.952;2023-07-16T04:25:26;18.50;99.90
14755;DHT22;7469;50.906;6.952;2023-07-16T04:27:55;18.50;99.90
14755;DHT22;7469;50.906;6.952;2023-07-16T04:30:23;18.50;99.90
14755;DHT22;7469;50.906;6.952;2023-07-16T04:32:51;18.50;99.90
14755;DHT22;7469;50.906;6.952;2023-07-16T04:35:19;18.50;99.90
14755;DHT22;7469;50.906;6.952;2023-07-16T04:37:47;18.50;99.90
14755;DHT22;7469;50.906;6.952;2023-07-16T04:40:16;18.50;99.90
14755;DHT22;7469;50.906;6.952;2023-07-16T04:42:44;18.60;99.90
14755;DHT22;7469;50.906;6.952;2023-07-16T04:45:13;18.60;99.90
14755;DHT22;7469;50.906;6.952;2023-07-16T04:47:40;18.60;99.90
14755;DHT22;7469;50.906;6.952;2023-07-16T04:50:09;18.70;99.90
14755;DHT22;7469;50.906;6.952;2023-07-16T04:52:37;18.70;99.90
14755;DHT22;7469;50.906;6.952;2023-07-16T04:55:06;18.70;99.90
14755;DHT22;7469;50.906;6.952;2023-07-16T04:57:36;18.80;99.90
14755;DHT22;7469;50.906;6.952;2023-07-16T05:00:05;18.80;99.90
14755;DHT22;7469;50.906;6.952;2023-07-16T05:02:33;18.80;99.90
14755;DHT22;7469;50.906;6.952;2023-07-16T05:05:01;18.80;99.90
14755;DHT22;7469;50.906;6.952;2023-07-16T05:07:29;18.80;99.90
14755;DHT22;7469;50.906;6.952;2023-07-16T05:09:57;18.80;99.90
14755;DHT22;7469;50.906;6.952;2023-07-16T05:12:25;18.90;99.90
14755;DHT22;7469;50.906;6.952;2023-07-16T05:14:54;19.00;99.90
14755;DHT22;7469;50.906;6.952;2023-07-16T05:17:22;19.00;99.90
14755;DHT22;7469;50.906;6.952;2023-07-16T05:19:50;19.00;99.90
14755;DHT22;7469;50.906;6.952;2023-07-16T05:22:18;19.00;99.90
14755;DHT22;7469;50.906;6.952;2023-07-16T05:24:46;19.00;99.90
14755;DHT22;7469;50.906;6.952;2023-07-16T05:27:14;19.00;99.90
14755;DHT22;7469;50.906;6.952;2023-07-16T05:29:42;19.10;99.90
14755;DHT22;7469;50.906;6.952;2023-07-16T05:32:11;19.10;99.90
14755;DHT22;7469;50.906;6.952;2023-07-16T05:34:39;19.10;99.90
14755;DHT22;7469;50.906;6.952;2023-07-16T05:37:07;19.10;99.90
14755;DHT22;7469;50.906;6.952;2023-07-16T05:39:35;19.10;99.90
14755;DHT22;7469;50.906;6.952;2023-07-16T05:42:03;19.20;99.90
14755;DHT22;7469;50.906;6.952;2023-07-16T05:44:31;19.20;99.90
14755;DHT22;7469;50.906;6.952;2023-07-16T05:46:59;19.30;99.90
14755;DHT22;7469;50.906;6.952;2023-07-16T05:49:28;19.30;99.90
14755;DHT22;7469;50.906;6.952;2023-07-16T05:51:56;19.30;99.90
14755;DHT22;7469;50.906;6.952;2023-07-16T05:54:24;19.40;99.90
14755;DHT22;7469;50.906;6.952;2023-07-16T05:56:52;19.50;99.90
14755;DHT22;7469;50.906;6.952;2023-07-16T05:59:20;19.50;99.90
14755;DHT22;7469;50.906;6.952;2023-07-16T06:01:48;19.50;99.90
14755;DHT22;7469;50.906;6.952;2023-07-16T06:04:17;19.40;99.90
14755;DHT22;7469;50.906;6.952;2023-07-16T06:06:47;19.40;99.90
14755;DHT22;7469;50.906;6.952;2023-07-16T06:09:18;19.50;99.90
14755;DHT22;7469;50.906;6.952;2023-07-16T06:11:46;19.50;99.90
14755;DHT22;7469;50.906;6.952;2023-07-16T06:14:15;19.50;99.90
14755;DHT22;7469;50.906;6.952;2023-07-16T06:16:44;19.50;99.90
14755;DHT22;7469;50.906;6.952;2023-07-16T06:19:12;19.50;99.90
14755;DHT22;7469;50.906;6.952;2023-07-16T06:21:40;19.60;99.90
14755;DHT22;7469;50.906;6.952;2023-07-16T06:24:09;19.60;99.90
14755;DHT22;7469;50.906;6.952;2023-07-16T06:26:40;19.70;99.90
14755;DHT22;7469;50.906;6.952;2023-07-16T06:29:08;19.70;99.90
14755;DHT22;7469;50.906;6.952;2023-07-16T06:31:36;19.70;99.90
14755;DHT22;7469;50.906;6.952;2023-07-16T06:34:04;19.70;99.90
14755;DHT22;7469;50.906;6.952;2023-07-16T06:36:32;19.80;99.90
14755;DHT22;7469;50.906;6.952;2023-07-16T06:39:00;19.80;99.90
14755;DHT22;7469;50.906;6.952;2023-07-16T06:41:29;19.80;99.90
14755;DHT22;7469;50.906;6.952;2023-07-16T06:43:59;19.90;99.90
14755;DHT22;7469;50.906;6.952;2023-07-16T06:46:27;19.90;99.90
14755;DHT22;7469;50.906;6.952;2023-07-16T06:48:55;19.90;99.90
14755;DHT22;7469;50.906;6.952;2023-07-16T06:51:23;19.90;99.90
14755;DHT22;7469;50.906;6.952;2023-07-16T06:53:51;20.00;99.90
14755;DHT22;7469;50.906;6.952;2023-07-16T06:56:18;20.00;99.90
14755;DHT22;7469;50.906;6.952;2023-07-16T06:58:48;20.00;99.90
14755;DHT22;7469;50.906;6.952;2023-07-16T07:01:16;20.10;99.90
14755;DHT22;7469;50.906;6.952;2023-07-16T07:03:44;20.00;99.90
14755;DHT22;7469;50.906;6.952;2023-07-16T07:06:12;20.00;99.90
14755;DHT22;7469;50.906;6.952;2023-07-16T07:08:40;20.10;99.90
14755;DHT22;7469;50.906;6.952;2023-07-16T07:11:08;20.20;99.90
14755;DHT22;7469;50.906;6.952;2023-07-16T07:13:36;20.20;99.90
14755;DHT22;7469;50.906;6.952;2023-07-16T07:16:05;20.30;99.90
14755;DHT22;7469;50.906;6.952;2023-07-16T07:18:33;20.30;99.90
14755;DHT22;7469;50.906;6.952;2023-07-16T07:21:01;20.30;99.90
14755;DHT22;7469;50.906;6.952;2023-07-16T07:23:29;20.30;99.90
14755;DHT22;7469;50.906;6.952;2023-07-16T07:25:57;20.30;99.90
14755;DHT22;7469;50.906;6.952;2023-07-16T07:28:25;20.30;99.90
14755;DHT22;7469;50.906;6.952;2023-07-16T07:30:54;20.40;99.90
14755;DHT22;7469;50.906;6.952;2023-07-16T07:33:24;20.50;99.90
14755;DHT22;7469;50.906;6.952;2023-07-16T07:35:53;20.50;99.90
14755;DHT22;7469;50.906;6.952;2023-07-16T07:38:21;20.50;99.90
14755;DHT22;7469;50.906;6.952;2023-07-16T07:40:49;20.60;99.90
14755;DHT22;7469;50.906;6.952;2023-07-16T07:43:17;20.60;99.60
14755;DHT22;7469;50.906;6.952;2023-07-16T07:45:45;20.70;99.00
14755;DHT22;7469;50.906;6.952;2023-07-16T07:48:13;20.70;98.20
14755;DHT22;7469;50.906;6.952;2023-07-16T07:50:44;20.70;98.00
14755;DHT22;7469;50.906;6.952;2023-07-16T07:53:16;20.70;97.50
14755;DHT22;7469;50.906;6.952;2023-07-16T07:55:46;20.70;97.30
14755;DHT22;7469;50.906;6.952;2023-07-16T07:58:14;20.80;97.30
14755;DHT22;7469;50.906;6.952;2023-07-16T08:00:42;20.80;96.90
14755;DHT22;7469;50.906;6.952;2023-07-16T08:03:10;20.90;96.60
14755;DHT22;7469;50.906;6.952;2023-07-16T08:05:38;21.00;96.10
14755;DHT22;7469;50.906;6.952;2023-07-16T08:08:07;21.00;95.10
14755;DHT22;7469;50.906;6.952;2023-07-16T08:10:35;21.00;93.90
14755;DHT22;7469;50.906;6.952;2023-07-16T08:13:03;21.00;93.50
14755;DHT22;7469;50.906;6.952;2023-07-16T08:15:31;21.10;93.00
14755;DHT22;7469;50.906;6.952;2023-07-16T08:17:59;21.10;92.80
14755;DHT22;7469;50.906;6.952;2023-07-16T08:20:27;21.10;91.90
14755;DHT22;7469;50.906;6.952;2023-07-16T08:22:55;21.20;92.00
14755;DHT22;7469;50.906;6.952;2023-07-16T08:25:25;21.30;91.50
14755;DHT22;7469;50.906;6.952;2023-07-16T08:27:53;21.30;91.20
14755;DHT22;7469;50.906;6.952;2023-07-16T08:30:21;21.40;90.80
14755;DHT22;7469;50.906;6.952;2023-07-16T08:32:49;21.40;90.20
14755;DHT22;7469;50.906;6.952;2023-07-16T08:35:18;21.50;88.90
14755;DHT22;7469;50.906;6.952;2023-07-16T08:37:46;21.50;87.10
14755;DHT22;7469;50.906;6.952;2023-07-16T08:40:14;21.50;87.20
14755;DHT22;7469;50.906;6.952;2023-07-16T08:42:45;21.70;86.70
14755;DHT22;7469;50.906;6.952;2023-07-16T08:45:14;21.80;86.00
14755;DHT22;7469;50.906;6.952;2023-07-16T08:47:42;21.90;84.90
14755;DHT22;7469;50.906;6.952;2023-07-16T08:50:11;21.90;82.30
14755;DHT22;7469;50.906;6.952;2023-07-16T08:52:40;22.00;82.10
14755;DHT22;7469;50.906;6.952;2023-07-16T08:55:08;22.10;82.70
14755;DHT22;7469;50.906;6.952;2023-07-16T08:57:36;22.20;81.10
14755;DHT22;7469;50.906;6.952;2023-07-16T09:00:08;22.40;80.30
14755;DHT22;7469;50.906;6.952;2023-07-16T09:02:37;22.50;78.70
14755;DHT22;7469;50.906;6.952;2023-07-16T09:05:05;22.60;77.10
14755;DHT22;7469;50.906;6.952;2023-07-16T09:07:34;22.70;76.50
14755;DHT22;7469;50.906;6.952;2023-07-16T09:10:03;22.70;75.70
14755;DHT22;7469;50.906;6.952;2023-07-16T09:12:31;22.80;73.10
14755;DHT22;7469;50.906;6.952;2023-07-16T09:14:59;22.80;72.60
14755;DHT22;7469;50.906;6.952;2023-07-16T09:17:28;22.90;72.90
14755;DHT22;7469;50.906;6.952;2023-07-16T09:19:56;23.10;71.20
14755;DHT22;7469;50.906;6.952;2023-07-16T09:22:24;23.20;70.90
14755;DHT22;7469;50.906;6.952;2023-07-16T09:24:52;23.60;70.20
14755;DHT22;7469;50.906;6.952;2023-07-16T09:27:20;24.00;68.30
14755;DHT22;7469;50.906;6.952;2023-07-16T09:29:48;25.10;64.90
14755;DHT22;7469;50.906;6.952;2023-07-16T09:32:18;26.20;56.70
14755;DHT22;7469;50.906;6.952;2023-07-16T09:34:49;27.00;50.70
14755;DHT22;7469;50.906;6.952;2023-07-16T09:37:18;27.70;46.10
14755;DHT22;7469;50.906;6.952;2023-07-16T09:39:46;28.20;42.50
14755;DHT22;7469;50.906;6.952;2023-07-16T09:42:15;28.80;40.20
14755;DHT22;7469;50.906;6.952;2023-07-16T09:44:46;29.30;37.30
14755;DHT22;7469;50.906;6.952;2023-07-16T09:47:15;29.50;34.70
14755;DHT22;7469;50.906;6.952;2023-07-16T09:49:43;29.70;33.10
14755;DHT22;7469;50.906;6.952;2023-07-16T09:52:14;29.70;31.20
14755;DHT22;7469;50.906;6.952;2023-07-16T09:54:42;30.00;30.10
14755;DHT22;7469;50.906;6.952;2023-07-16T09:57:13;30.30;28.90
14755;DHT22;7469;50.906;6.952;2023-07-16T09:59:44;30.30;28.60
14755;DHT22;7469;50.906;6.952;2023-07-16T10:02:13;30.30;27.40
14755;DHT22;7469;50.906;6.952;2023-07-16T10:04:41;30.40;27.30
14755;DHT22;7469;50.906;6.952;2023-07-16T10:07:20;30.30;26.70
14755;DHT22;7469;50.906;6.952;2023-07-16T10:09:53;30.00;26.80
14755;DHT22;7469;50.906;6.952;2023-07-16T10:12:24;29.20;27.10
14755;DHT22;7469;50.906;6.952;2023-07-16T10:14:54;28.50;27.70
14755;DHT22;7469;50.906;6.952;2023-07-16T10:17:24;28.70;28.30
14755;DHT22;7469;50.906;6.952;2023-07-16T10:19:56;29.00;27.70
14755;DHT22;7469;50.906;6.952;2023-07-16T10:22:36;28.90;27.00
14755;DHT22;7469;50.906;6.952;2023-07-16T10:25:09;28.70;27.10
14755;DHT22;7469;50.906;6.952;2023-07-16T10:27:37;28.30;27.50
14755;DHT22;7469;50.906;6.952;2023-07-16T10:30:06;27.90;27.80
14755;DHT22;7469;50.906;6.952;2023-07-16T10:32:34;27.90;27.80
14755;DHT22;7469;50.906;6.952;2023-07-16T10:35:03;28.20;27.50
14755;DHT22;7469;50.906;6.952;2023-07-16T10:37:33;28.60;27.40
14755;DHT22;7469;50.906;6.952;2023-07-16T10:40:02;28.90;26.80
14755;DHT22;7469;50.906;6.952;2023-07-16T10:42:31;28.90;26.10
14755;DHT22;7469;50.906;6.952;2023-07-16T10:45:02;28.70;25.80
14755;DHT22;7469;50.906;6.952;2023-07-16T10:47:31;28.60;25.90
14755;DHT22;7469;50.906;6.952;2023-07-16T10:50:00;28.40;25.90
14755;DHT22;7469;50.906;6.952;2023-07-16T10:52:30;28.10;26.10
14755;DHT22;7469;50.906;6.952;2023-07-16T10:55:00;27.80;26.50
14755;DHT22;7469;50.906;6.952;2023-07-16T10:57:28;27.70;26.60
14755;DHT22;7469;50.906;6.952;2023-07-16T10:59:58;27.40;26.70
14755;DHT22;7469;50.906;6.952;2023-07-16T11:02:27;27.00;27.00
14755;DHT22;7469;50.906;6.952;2023-07-16T11:04:55;26.70;27.30
14755;DHT22;7469;50.906;6.952;2023-07-16T11:07:24;26.70;27.40
14755;DHT22;7469;50.906;6.952;2023-07-16T11:09:54;26.60;27.40
14755;DHT22;7469;50.906;6.952;2023-07-16T11:12:24;26.50;27.60
14755;DHT22;7469;50.906;6.952;2023-07-16T11:14:53;26.40;28.00
14755;DHT22;7469;50.906;6.952;2023-07-16T11:17:23;26.30;28.10
14755;DHT22;7469;50.906;6.952;2023-07-16T11:19:52;26.20;28.20
14755;DHT22;7469;50.906;6.952;2023-07-16T11:22:25;26.10;28.60
14755;DHT22;7469;50.906;6.952;2023-07-16T11:24:53;26.60;28.30
14755;DHT22;7469;50.906;6.952;2023-07-16T11:27:24;26.90;27.80
14755;DHT22;7469;50.906;6.952;2023-07-16T11:29:53;26.90;28.00
14755;DHT22;7469;50.906;6.952;2023-07-16T11:32:29;26.80;27.30
14755;DHT22;7469;50.906;6.952;2023-07-16T11:34:58;26.70;27.50
14755;DHT22;7469;50.906;6.952;2023-07-16T11:37:27;26.70;27.20
14755;DHT22;7469;50.906;6.952;2023-07-16T11:39:57;26.50;27.10
14755;DHT22;7469;50.906;6.952;2023-07-16T11:42:30;26.20;27.40
14755;DHT22;7469;50.906;6.952;2023-07-16T11:44:59;26.00;27.90
14755;DHT22;7469;50.906;6.952;2023-07-16T11:47:28;25.90;28.20
14755;DHT22;7469;50.906;6.952;2023-07-16T11:49:56;25.90;28.40
14755;DHT22;7469;50.906;6.952;2023-07-16T11:52:25;25.90;28.30
14755;DHT22;7469;50.906;6.952;2023-07-16T11:54:56;25.90;28.50
14755;DHT22;7469;50.906;6.952;2023-07-16T11:57:26;25.80;28.40
14755;DHT22;7469;50.906;6.952;2023-07-16T11:59:55;25.70;28.50
14755;DHT22;7469;50.906;6.952;2023-07-16T12:02:25;25.70;28.60
14755;DHT22;7469;50.906;6.952;2023-07-16T12:04:54;25.60;28.50
14755;DHT22;7469;50.906;6.952;2023-07-16T12:07:31;25.60;28.90
14755;DHT22;7469;50.906;6.952;2023-07-16T12:10:01;25.70;28.90
14755;DHT22;7469;50.906;6.952;2023-07-16T12:12:30;25.70;28.70
14755;DHT22;7469;50.906;6.952;2023-07-16T12:14:59;25.90;28.60
14755;DHT22;7469;50.906;6.952;2023-07-16T12:17:27;25.90;28.40
14755;DHT22;7469;50.906;6.952;2023-07-16T12:19:55;25.90;28.40
14755;DHT22;7469;50.906;6.952;2023-07-16T12:22:24;25.90;28.40
14755;DHT22;7469;50.906;6.952;2023-07-16T12:24:52;25.80;28.40
14755;DHT22;7469;50.906;6.952;2023-07-16T12:27:21;25.70;28.30
14755;DHT22;7469;50.906;6.952;2023-07-16T12:29:49;25.70;28.30
14755;DHT22;7469;50.906;6.952;2023-07-16T12:32:20;25.80;28.40
14755;DHT22;7469;50.906;6.952;2023-07-16T12:34:48;26.00;28.00
14755;DHT22;7469;50.906;6.952;2023-07-16T12:37:16;25.90;27.70
14755;DHT22;7469;50.906;6.952;2023-07-16T12:39:44;25.80;28.10
14755;DHT22;7469;50.906;6.952;2023-07-16T12:42:12;25.60;28.30
14755;DHT22;7469;50.906;6.952;2023-07-16T12:44:40;25.60;28.50
14755;DHT22;7469;50.906;6.952;2023-07-16T12:47:08;25.50;28.80
14755;DHT22;7469;50.906;6.952;2023-07-16T12:49:37;25.40;28.90
14755;DHT22;7469;50.906;6.952;2023-07-16T12:52:06;25.40;29.10
14755;DHT22;7469;50.906;6.952;2023-07-16T12:54:34;25.40;29.30
14755;DHT22;7469;50.906;6.952;2023-07-16T12:57:02;25.30;29.30
14755;DHT22;7469;50.906;6.952;2023-07-16T12:59:30;25.50;29.40
14755;DHT22;7469;50.906;6.952;2023-07-16T13:01:58;25.70;29.20
14755;DHT22;7469;50.906;6.952;2023-07-16T13:04:26;25.80;28.90
14755;DHT22;7469;50.906;6.952;2023-07-16T13:06:56;25.90;28.80
14755;DHT22;7469;50.906;6.952;2023-07-16T13:09:23;25.90;28.70
14755;DHT22;7469;50.906;6.952;2023-07-16T13:11:51;25.90;28.40
14755;DHT22;7469;50.906;6.952;2023-07-16T13:14:19;25.80;27.80
14755;DHT22;7469;50.906;6.952;2023-07-16T13:16:47;25.70;27.50
14755;DHT22;7469;50.906;6.952;2023-07-16T13:19:15;25.60;27.90
14755;DHT22;7469;50.906;6.952;2023-07-16T13:21:43;25.70;28.20
14755;DHT22;7469;50.906;6.952;2023-07-16T13:24:13;25.60;28.20
14755;DHT22;7469;50.906;6.952;2023-07-16T13:26:40;25.60;28.30
14755;DHT22;7469;50.906;6.952;2023-07-16T13:29:11;25.70;28.50
14755;DHT22;7469;50.906;6.952;2023-07-16T13:31:39;25.80;28.60
14755;DHT22;7469;50.906;6.952;2023-07-16T13:34:07;25.80;29.00
14755;DHT22;7469;50.906;6.952;2023-07-16T13:36:35;25.90;28.40
14755;DHT22;7469;50.906;6.952;2023-07-16T13:39:03;26.00;28.40
14755;DHT22;7469;50.906;6.952;2023-07-16T13:41:33;26.10;28.40
14755;DHT22;7469;50.906;6.952;2023-07-16T13:44:01;26.10;28.00
14755;DHT22;7469;50.906;6.952;2023-07-16T13:46:30;26.00;27.50
14755;DHT22;7469;50.906;6.952;2023-07-16T13:48:58;25.90;27.50
14755;DHT22;7469;50.906;6.952;2023-07-16T13:51:26;25.90;27.70
14755;DHT22;7469;50.906;6.952;2023-07-16T13:53:54;26.00;27.70
14755;DHT22;7469;50.906;6.952;2023-07-16T13:56:22;26.00;28.00
14755;DHT22;7469;50.906;6.952;2023-07-16T13:58:51;26.10;28.10
14755;DHT22;7469;50.906;6.952;2023-07-16T14:01:21;26.20;27.90
14755;DHT22;7469;50.906;6.952;2023-07-16T14:03:49;26.00;27.80
14755;DHT22;7469;50.906;6.952;2023-07-16T14:06:18;26.20;27.70
14755;DHT22;7469;50.906;6.952;2023-07-16T14:08:46;26.20;27.50
14755;DHT22;7469;50.906;6.952;2023-07-16T14:11:14;26.20;27.40
14755;DHT22;7469;50.906;6.952;2023-07-16T14:13:44;26.10;27.40
14755;DHT22;7469;50.906;6.952;2023-07-16T14:16:16;26.10;27.40
14755;DHT22;7469;50.906;6.952;2023-07-16T14:18:44;26.00;27.20
14755;DHT22;7469;50.906;6.952;2023-07-16T14:21:12;26.00;27.30
14755;DHT22;7469;50.906;6.952;2023-07-16T14:23:40;26.00;27.40
14755;DHT22;7469;50.906;6.952;2023-07-16T14:26:08;26.20;27.40
14755;DHT22;7469;50.906;6.952;2023-07-16T14:28:36;26.30;27.20
14755;DHT22;7469;50.906;6.952;2023-07-16T14:31:04;26.20;27.10
14755;DHT22;7469;50.906;6.952;2023-07-16T14:33:33;26.20;27.40
14755;DHT22;7469;50.906;6.952;2023-07-16T14:36:01;26.10;27.30
14755;DHT22;7469;50.906;6.952;2023-07-16T14:38:29;26.20;27.10
14755;DHT22;7469;50.906;6.952;2023-07-16T14:40:57;26.20;26.70
14755;DHT22;7469;50.906;6.952;2023-07-16T14:43:25;26.20;26.40
14755;DHT22;7469;50.906;6.952;2023-07-16T14:45:53;26.50;26.00
14755;DHT22;7469;50.906;6.952;2023-07-16T14:48:21;26.50;25.80
14755;DHT22;7469;50.906;6.952;2023-07-16T14:50:51;26.40;25.80
14755;DHT22;7469;50.906;6.952;2023-07-16T14:53:19;26.30;25.80
14755;DHT22;7469;50.906;6.952;2023-07-16T14:55:47;26.20;26.20
14755;DHT22;7469;50.906;6.952;2023-07-16T14:58:17;26.10;26.30
14755;DHT22;7469;50.906;6.952;2023-07-16T15:00:45;26.00;26.40
14755;DHT22;7469;50.906;6.952;2023-07-16T15:03:13;26.20;26.40
14755;DHT22;7469;50.906;6.952;2023-07-16T15:05:42;26.20;26.20
14755;DHT22;7469;50.906;6.952;2023-07-16T15:08:11;26.10;26.30
14755;DHT22;7469;50.906;6.952;2023-07-16T15:10:39;25.90;26.70
14755;DHT22;7469;50.906;6.952;2023-07-16T15:13:07;26.10;26.70
14755;DHT22;7469;50.906;6.952;2023-07-16T15:15:35;26.20;26.70
14755;DHT22;7469;50.906;6.952;2023-07-16T15:18:03;26.30;26.70
14755;DHT22;7469;50.906;6.952;2023-07-16T15:20:31;26.50;26.40
14755;DHT22;7469;50.906;6.952;2023-07-16T15:22:59;26.60;26.20
14755;DHT22;7469;50.906;6.952;2023-07-16T15:25:28;26.60;26.10
14755;DHT22;7469;50.906;6.952;2023-07-16T15:27:56;26.70;26.10
14755;DHT22;7469;50.906;6.952;2023-07-16T15:30:26;26.60;26.10
14755;DHT22;7469;50.906;6.952;2023-07-16T15:32:53;26.50;26.50
14755;DHT22;7469;50.906;6.952;2023-07-16T15:35:21;26.50;26.10
14755;DHT22;7469;50.906;6.952;2023-07-16T15:37:49;26.60;26.10
14755;DHT22;7469;50.906;6.952;2023-07-16T15:40:17;26.70;26.00
14755;DHT22;7469;50.906;6.952;2023-07-16T15:42:47;26.80;25.70
14755;DHT22;7469;50.906;6.952;2023-07-16T15:45:16;26.70;25.70
14755;DHT22;7469;50.906;6.952;2023-07-16T15:47:45;26.60;25.90
14755;DHT22;7469;50.906;6.952;2023-07-16T15:50:13;26.50;25.70
14755;DHT22;7469;50.906;6.952;2023-07-16T15:52:41;26.40;25.80
14755;DHT22;7469;50.906;6.952;2023-07-16T15:55:09;26.30;25.90